sensor_id;sensor_type;location;lat;lon;timestamp;P1;durP1;ratioP1;P2;durP2;ratioP2
7665;SDS011;3875;46.562;4.898;2023-06-01T00:00:38;11.33;;;6.07;;
7665;SDS011;3875;46.562;4.898;2023-06-01T00:03:04;8.97;;;5.47;;
7665;SDS011;3875;46.562;4.898;2023-06-01T00:05:30;7.43;;;5.23;;
7665;SDS011;3875;46.562;4.898;2023-06-01T00:07:56;6.57;;;5.07;;
7665;SDS011;3875;46.562;4.898;2023-06-01T00:10:22;6.20;;;4.97;;
7665;SDS011;3875;46.562;4.898;2023-06-01T00:12:47;8.93;;;4.60;;
7665;SDS011;3875;46.562;4.898;2023-06-01T00:15:13;4.70;;;4.27;;
7665;SDS011;3875;46.562;4.898;2023-06-01T00:17:39;6.60;;;5.20;;
7665;SDS011;3875;46.562;4.898;2023-06-01T00:20:05;8.03;;;4.67;;
7665;SDS011;3875;46.562;4.898;2023-06-01T00:22:34;8.07;;;5.53;;
7665;SDS011;3875;46.562;4.898;2023-06-01T00:25:04;6.30;;;4.70;;
7665;SDS011;3875;46.562;4.898;2023-06-01T00:27:32;6.13;;;4.87;;
7665;SDS011;3875;46.562;4.898;2023-06-01T00:29:57;6.97;;;5.37;;
7665;SDS011;3875;46.562;4.898;2023-06-01T00:32:23;7.40;;;4.80;;
7665;SDS011;3875;46.562;4.898;2023-06-01T00:34:48;6.77;;;4.20;;
7665;SDS011;3875;46.562;4.898;2023-06-01T00:37:14;6.53;;;4.13;;
7665;SDS011;3875;46.562;4.898;2023-06-01T00:39:40;7.17;;;4.60;;
7665;SDS011;3875;46.562;4.898;2023-06-01T00:42:06;5.20;;;4.27;;
7665;SDS011;3875;46.562;4.898;2023-06-01T00:44:31;4.57;;;4.07;;
7665;SDS011;3875;46.562;4.898;2023-06-01T00:46:57;5.47;;;4.20;;
7665;SDS011;3875;46.562;4.898;2023-06-01T00:49:24;4.97;;;4.47;;
7665;SDS011;3875;46.562;4.898;2023-06-01T00:51:51;6.70;;;4.80;;
7665;SDS011;3875;46.562;4.898;2023-06-01T00:54:17;6.17;;;4.17;;
7665;SDS011;3875;46.562;4.898;2023-06-01T00:56:43;9.47;;;4.57;;
7665;SDS011;3875;46.562;4.898;2023-06-01T00:59:09;5.10;;;4.60;;
7665;SDS011;3875;46.562;4.898;2023-06-01T01:01:36;5.90;;;4.27;;
7665;SDS011;3875;46.562;4.898;2023-06-01T01:04:02;5.70;;;4.07;;
7665;SDS011;3875;46.562;4.898;2023-06-01T01:06:34;10.73;;;4.80;;
7665;SDS011;3875;46.562;4.898;2023-06-01T01:12:19;7.87;;;4.73;;
7665;SDS011;3875;46.562;4.898;2023-06-01T01:14:59;5.13;;;4.20;;
7665;SDS011;3875;46.562;4.898;2023-06-01T01:17:36;6.13;;;4.10;;
7665;SDS011;3875;46.562;4.898;2023-06-01T01:20:12;8.23;;;4.63;;
7665;SDS011;3875;46.562;4.898;2023-06-01T01:31:11;5.10;;;4.60;;
7665;SDS011;3875;46.562;4.898;2023-06-01T01:33:39;6.83;;;4.70;;
7665;SDS011;3875;46.562;4.898;2023-06-01T01:36:06;6.50;;;5.03;;
7665;SDS011;3875;46.562;4.898;2023-06-01T01:38:34;8.43;;;5.20;;
7665;SDS011;3875;46.562;4.898;2023-06-01T01:41:03;6.47;;;4.90;;
7665;SDS011;3875;46.562;4.898;2023-06-01T01:43:29;6.63;;;4.27;;
7665;SDS011;3875;46.562;4.898;2023-06-01T01:52:08;5.10;;;4.60;;
7665;SDS011;3875;46.562;4.898;2023-06-01T01:54:43;6.47;;;4.80;;
7665;SDS011;3875;46.562;4.898;2023-06-01T01:57:12;5.53;;;4.87;;
7665;SDS011;3875;46.562;4.898;2023-06-01T01:59:44;6.37;;;4.87;;
7665;SDS011;3875;46.562;4.898;2023-06-01T02:02:11;10.17;;;4.83;;
7665;SDS011;3875;46.562;4.898;2023-06-01T02:04:40;6.77;;;5.10;;
7665;SDS011;3875;46.562;4.898;2023-06-01T02:07:06;5.80;;;4.87;;
7665;SDS011;3875;46.562;4.898;2023-06-01T02:09:32;9.00;;;5.40;;
7665;SDS011;3875;46.562;4.898;2023-06-01T02:11:58;7.63;;;5.40;;
7665;SDS011;3875;46.562;4.898;2023-06-01T02:14:23;7.30;;;5.40;;
7665;SDS011;3875;46.562;4.898;2023-06-01T02:16:49;6.60;;;5.63;;
7665;SDS011;3875;46.562;4.898;2023-06-01T02:19:15;5.90;;;5.27;;
7665;SDS011;3875;46.562;4.898;2023-06-01T02:21:41;6.67;;;5.10;;
7665;SDS011;3875;46.562;4.898;2023-06-01T02:24:07;8.20;;;5.60;;
7665;SDS011;3875;46.562;4.898;2023-06-01T02:26:34;5.67;;;4.63;;
7665;SDS011;3875;46.562;4.898;2023-06-01T02:29:00;4.93;;;4.40;;
7665;SDS011;3875;46.562;4.898;2023-06-01T02:31:33;5.73;;;5.23;;
7665;SDS011;3875;46.562;4.898;2023-06-01T02:33:59;5.87;;;5.27;;
7665;SDS011;3875;46.562;4.898;2023-06-01T02:36:28;7.83;;;5.30;;
7665;SDS011;3875;46.562;4.898;2023-06-01T02:38:57;7.23;;;5.53;;
7665;SDS011;3875;46.562;4.898;2023-06-01T02:41:24;11.57;;;5.97;;
7665;SDS011;3875;46.562;4.898;2023-06-01T02:43:50;6.97;;;5.43;;
7665;SDS011;3875;46.562;4.898;2023-06-01T02:46:19;9.00;;;5.50;;
7665;SDS011;3875;46.562;4.898;2023-06-01T02:48:45;6.43;;;5.07;;
7665;SDS011;3875;46.562;4.898;2023-06-01T02:51:11;6.20;;;5.60;;
7665;SDS011;3875;46.562;4.898;2023-06-01T02:53:39;8.67;;;5.20;;
7665;SDS011;3875;46.562;4.898;2023-06-01T02:56:05;6.73;;;5.90;;
7665;SDS011;3875;46.562;4.898;2023-06-01T02:58:31;6.50;;;5.30;;
7665;SDS011;3875;46.562;4.898;2023-06-01T03:00:56;8.87;;;5.70;;
7665;SDS011;3875;46.562;4.898;2023-06-01T03:03:26;8.80;;;5.33;;
7665;SDS011;3875;46.562;4.898;2023-06-01T03:05:52;6.50;;;5.63;;
7665;SDS011;3875;46.562;4.898;2023-06-01T03:08:18;7.87;;;5.73;;
7665;SDS011;3875;46.562;4.898;2023-06-01T03:10:44;9.23;;;5.60;;
7665;SDS011;3875;46.562;4.898;2023-06-01T03:13:10;9.47;;;6.07;;
7665;SDS011;3875;46.562;4.898;2023-06-01T03:15:36;8.23;;;5.60;;
7665;SDS011;3875;46.562;4.898;2023-06-01T03:18:05;7.13;;;5.53;;
7665;SDS011;3875;46.562;4.898;2023-06-01T03:20:32;7.17;;;5.60;;
7665;SDS011;3875;46.562;4.898;2023-06-01T03:22:58;5.80;;;5.20;;
7665;SDS011;3875;46.562;4.898;2023-06-01T03:25:24;6.73;;;4.93;;
7665;SDS011;3875;46.562;4.898;2023-06-01T03:27:53;11.40;;;5.47;;
7665;SDS011;3875;46.562;4.898;2023-06-01T03:30:18;7.90;;;5.33;;
7665;SDS011;3875;46.562;4.898;2023-06-01T03:32:44;8.43;;;5.17;;
7665;SDS011;3875;46.562;4.898;2023-06-01T03:35:11;8.23;;;4.87;;
7665;SDS011;3875;46.562;4.898;2023-06-01T03:37:38;6.10;;;5.47;;
7665;SDS011;3875;46.562;4.898;2023-06-01T03:40:07;9.17;;;5.77;;
7665;SDS011;3875;46.562;4.898;2023-06-01T03:42:43;5.70;;;4.77;;
7665;SDS011;3875;46.562;4.898;2023-06-01T03:45:11;5.83;;;5.33;;
7665;SDS011;3875;46.562;4.898;2023-06-01T03:47:38;6.17;;;5.57;;
7665;SDS011;3875;46.562;4.898;2023-06-01T03:50:05;5.63;;;5.03;;
7665;SDS011;3875;46.562;4.898;2023-06-01T03:52:32;6.30;;;5.40;;
7665;SDS011;3875;46.562;4.898;2023-06-01T03:54:59;6.03;;;5.43;;
7665;SDS011;3875;46.562;4.898;2023-06-01T03:57:26;5.63;;;4.80;;
7665;SDS011;3875;46.562;4.898;2023-06-01T03:59:52;6.20;;;5.53;;
7665;SDS011;3875;46.562;4.898;2023-06-01T04:02:18;6.97;;;5.00;;
7665;SDS011;3875;46.562;4.898;2023-06-01T04:04:44;9.03;;;5.70;;
7665;SDS011;3875;46.562;4.898;2023-06-01T04:07:11;8.40;;;5.57;;
7665;SDS011;3875;46.562;4.898;2023-06-01T04:09:40;9.40;;;5.80;;
7665;SDS011;3875;46.562;4.898;2023-06-01T04:12:06;6.60;;;5.47;;
7665;SDS011;3875;46.562;4.898;2023-06-01T04:14:32;7.77;;;5.83;;
7665;SDS011;3875;46.562;4.898;2023-06-01T04:16:58;7.40;;;5.70;;
7665;SDS011;3875;46.562;4.898;2023-06-01T04:19:23;7.77;;;5.77;;
7665;SDS011;3875;46.562;4.898;2023-06-01T04:21:49;7.57;;;5.37;;
7665;SDS011;3875;46.562;4.898;2023-06-01T04:24:15;8.27;;;4.90;;
7665;SDS011;3875;46.562;4.898;2023-06-01T04:26:41;5.43;;;4.80;;
7665;SDS011;3875;46.562;4.898;2023-06-01T04:29:07;7.03;;;5.50;;
7665;SDS011;3875;46.562;4.898;2023-06-01T04:31:36;6.80;;;6.20;;
7665;SDS011;3875;46.562;4.898;2023-06-01T04:34:03;8.30;;;5.73;;
7665;SDS011;3875;46.562;4.898;2023-06-01T04:36:32;8.23;;;6.10;;
7665;SDS011;3875;46.562;4.898;2023-06-01T04:39:02;8.20;;;5.80;;
7665;SDS011;3875;46.562;4.898;2023-06-01T04:41:28;11.33;;;6.47;;
7665;SDS011;3875;46.562;4.898;2023-06-01T04:43:56;8.20;;;5.67;;
7665;SDS011;3875;46.562;4.898;2023-06-01T04:46:23;6.60;;;5.53;;
7665;SDS011;3875;46.562;4.898;2023-06-01T04:48:54;13.97;;;6.00;;
7665;SDS011;3875;46.562;4.898;2023-06-01T04:51:23;6.23;;;5.50;;
7665;SDS011;3875;46.562;4.898;2023-06-01T04:53:50;13.33;;;6.40;;
7665;SDS011;3875;46.562;4.898;2023-06-01T04:56:23;6.67;;;5.70;;
7665;SDS011;3875;46.562;4.898;2023-06-01T04:58:50;8.73;;;6.23;;
7665;SDS011;3875;46.562;4.898;2023-06-01T05:01:17;7.23;;;6.20;;
7665;SDS011;3875;46.562;4.898;2023-06-01T05:03:43;10.83;;;6.47;;
7665;SDS011;3875;46.562;4.898;2023-06-01T05:06:12;12.67;;;6.20;;
7665;SDS011;3875;46.562;4.898;2023-06-01T05:08:39;11.37;;;6.90;;
7665;SDS011;3875;46.562;4.898;2023-06-01T05:11:05;14.87;;;6.73;;
7665;SDS011;3875;46.562;4.898;2023-06-01T05:13:35;7.30;;;6.60;;
7665;SDS011;3875;46.562;4.898;2023-06-01T05:16:05;9.03;;;6.57;;
7665;SDS011;3875;46.562;4.898;2023-06-01T05:18:32;7.80;;;6.47;;
7665;SDS011;3875;46.562;4.898;2023-06-01T05:20:59;8.57;;;6.40;;
7665;SDS011;3875;46.562;4.898;2023-06-01T05:23:25;10.80;;;6.57;;
7665;SDS011;3875;46.562;4.898;2023-06-01T05:25:51;9.63;;;6.23;;
7665;SDS011;3875;46.562;4.898;2023-06-01T05:28:18;13.50;;;7.10;;
7665;SDS011;3875;46.562;4.898;2023-06-01T05:30:45;7.87;;;6.80;;
7665;SDS011;3875;46.562;4.898;2023-06-01T05:33:11;7.73;;;6.53;;
7665;SDS011;3875;46.562;4.898;2023-06-01T05:35:37;8.17;;;6.67;;
7665;SDS011;3875;46.562;4.898;2023-06-01T05:38:03;7.83;;;7.03;;
7665;SDS011;3875;46.562;4.898;2023-06-01T05:40:28;7.80;;;6.97;;
7665;SDS011;3875;46.562;4.898;2023-06-01T05:42:54;8.87;;;7.70;;
7665;SDS011;3875;46.562;4.898;2023-06-01T05:45:20;8.20;;;7.40;;
7665;SDS011;3875;46.562;4.898;2023-06-01T05:47:46;8.03;;;7.23;;
7665;SDS011;3875;46.562;4.898;2023-06-01T05:50:11;11.10;;;7.73;;
7665;SDS011;3875;46.562;4.898;2023-06-01T05:52:37;7.93;;;7.00;;
7665;SDS011;3875;46.562;4.898;2023-06-01T05:55:04;12.27;;;7.27;;
7665;SDS011;3875;46.562;4.898;2023-06-01T05:57:30;8.20;;;7.23;;
7665;SDS011;3875;46.562;4.898;2023-06-01T05:59:56;12.77;;;7.47;;
7665;SDS011;3875;46.562;4.898;2023-06-01T06:02:22;9.30;;;7.43;;
7665;SDS011;3875;46.562;4.898;2023-06-01T06:04:47;10.20;;;7.20;;
7665;SDS011;3875;46.562;4.898;2023-06-01T06:07:13;8.53;;;7.37;;
7665;SDS011;3875;46.562;4.898;2023-06-01T06:09:39;9.70;;;7.53;;
7665;SDS011;3875;46.562;4.898;2023-06-01T06:12:05;11.07;;;7.87;;
7665;SDS011;3875;46.562;4.898;2023-06-01T06:14:31;10.73;;;7.43;;
7665;SDS011;3875;46.562;4.898;2023-06-01T06:16:57;8.10;;;7.30;;
7665;SDS011;3875;46.562;4.898;2023-06-01T06:19:23;7.80;;;7.00;;
7665;SDS011;3875;46.562;4.898;2023-06-01T06:21:49;9.77;;;8.00;;
7665;SDS011;3875;46.562;4.898;2023-06-01T06:24:14;9.77;;;7.63;;
7665;SDS011;3875;46.562;4.898;2023-06-01T06:26:40;10.37;;;7.47;;
7665;SDS011;3875;46.562;4.898;2023-06-01T06:29:06;7.33;;;6.63;;
7665;SDS011;3875;46.562;4.898;2023-06-01T06:31:31;10.47;;;7.13;;
7665;SDS011;3875;46.562;4.898;2023-06-01T06:33:57;7.70;;;6.47;;
7665;SDS011;3875;46.562;4.898;2023-06-01T06:36:23;9.00;;;6.40;;
7665;SDS011;3875;46.562;4.898;2023-06-01T06:38:48;9.23;;;7.13;;
7665;SDS011;3875;46.562;4.898;2023-06-01T06:41:14;8.77;;;6.30;;
7665;SDS011;3875;46.562;4.898;2023-06-01T06:43:40;7.70;;;6.23;;
7665;SDS011;3875;46.562;4.898;2023-06-01T06:46:06;8.80;;;6.73;;
7665;SDS011;3875;46.562;4.898;2023-06-01T06:48:32;8.90;;;7.17;;
7665;SDS011;3875;46.562;4.898;2023-06-01T06:50:58;9.13;;;7.20;;
7665;SDS011;3875;46.562;4.898;2023-06-01T06:53:24;8.17;;;7.00;;
7665;SDS011;3875;46.562;4.898;2023-06-01T06:55:49;7.50;;;6.80;;
7665;SDS011;3875;46.562;4.898;2023-06-01T06:58:15;10.03;;;6.73;;
7665;SDS011;3875;46.562;4.898;2023-06-01T07:00:41;11.27;;;7.20;;
7665;SDS011;3875;46.562;4.898;2023-06-01T07:03:07;8.57;;;7.40;;
7665;SDS011;3875;46.562;4.898;2023-06-01T07:05:33;8.43;;;7.37;;
7665;SDS011;3875;46.562;4.898;2023-06-01T07:07:59;9.17;;;7.30;;
7665;SDS011;3875;46.562;4.898;2023-06-01T07:10:25;12.87;;;7.63;;
7665;SDS011;3875;46.562;4.898;2023-06-01T07:12:51;7.77;;;7.03;;
7665;SDS011;3875;46.562;4.898;2023-06-01T07:15:17;10.70;;;7.77;;
7665;SDS011;3875;46.562;4.898;2023-06-01T07:17:42;8.70;;;7.90;;
7665;SDS011;3875;46.562;4.898;2023-06-01T07:20:08;13.23;;;7.57;;
7665;SDS011;3875;46.562;4.898;2023-06-01T07:22:38;9.77;;;7.43;;
7665;SDS011;3875;46.562;4.898;2023-06-01T07:25:04;10.37;;;7.23;;
7665;SDS011;3875;46.562;4.898;2023-06-01T07:27:30;9.17;;;8.00;;
7665;SDS011;3875;46.562;4.898;2023-06-01T07:30:00;9.40;;;7.93;;
7665;SDS011;3875;46.562;4.898;2023-06-01T07:32:27;8.37;;;6.83;;
7665;SDS011;3875;46.562;4.898;2023-06-01T07:34:52;11.03;;;7.17;;
7665;SDS011;3875;46.562;4.898;2023-06-01T07:37:18;9.73;;;6.90;;
7665;SDS011;3875;46.562;4.898;2023-06-01T07:39:48;10.80;;;8.10;;
7665;SDS011;3875;46.562;4.898;2023-06-01T07:42:14;8.53;;;6.70;;
7665;SDS011;3875;46.562;4.898;2023-06-01T07:44:40;8.57;;;7.73;;
7665;SDS011;3875;46.562;4.898;2023-06-01T07:47:06;7.97;;;7.17;;
7665;SDS011;3875;46.562;4.898;2023-06-01T07:49:32;10.80;;;7.20;;
7665;SDS011;3875;46.562;4.898;2023-06-01T07:52:01;7.60;;;6.83;;
7665;SDS011;3875;46.562;4.898;2023-06-01T07:54:27;10.17;;;7.30;;
7665;SDS011;3875;46.562;4.898;2023-06-01T07:56:52;8.30;;;7.37;;
7665;SDS011;3875;46.562;4.898;2023-06-01T07:59:19;8.88;;;7.60;;
7665;SDS011;3875;46.562;4.898;2023-06-01T08:01:46;7.97;;;7.17;;
7665;SDS011;3875;46.562;4.898;2023-06-01T08:04:13;7.50;;;6.27;;
7665;SDS011;3875;46.562;4.898;2023-06-01T08:06:39;9.90;;;6.50;;
7665;SDS011;3875;46.562;4.898;2023-06-01T08:09:06;8.80;;;6.93;;
7665;SDS011;3875;46.562;4.898;2023-06-01T08:11:32;7.37;;;6.43;;
7665;SDS011;3875;46.562;4.898;2023-06-01T08:13:57;8.80;;;6.60;;
7665;SDS011;3875;46.562;4.898;2023-06-01T08:16:29;10.43;;;7.43;;
7665;SDS011;3875;46.562;4.898;2023-06-01T08:18:55;6.87;;;6.27;;
7665;SDS011;3875;46.562;4.898;2023-06-01T08:21:22;7.07;;;6.13;;
7665;SDS011;3875;46.562;4.898;2023-06-01T08:23:50;7.43;;;6.63;;
7665;SDS011;3875;46.562;4.898;2023-06-01T08:26:16;8.73;;;6.17;;
7665;SDS011;3875;46.562;4.898;2023-06-01T08:28:45;6.17;;;5.57;;
7665;SDS011;3875;46.562;4.898;2023-06-01T08:31:18;7.53;;;6.17;;
7665;SDS011;3875;46.562;4.898;2023-06-01T08:33:44;7.47;;;5.90;;
7665;SDS011;3875;46.562;4.898;2023-06-01T08:36:11;6.73;;;5.90;;
7665;SDS011;3875;46.562;4.898;2023-06-01T08:38:38;7.50;;;6.13;;
7665;SDS011;3875;46.562;4.898;2023-06-01T08:41:08;7.80;;;5.20;;
7665;SDS011;3875;46.562;4.898;2023-06-01T08:43:42;10.43;;;5.67;;
7665;SDS011;3875;46.562;4.898;2023-06-01T08:46:11;10.83;;;5.90;;
7665;SDS011;3875;46.562;4.898;2023-06-01T08:48:39;7.30;;;6.53;;
7665;SDS011;3875;46.562;4.898;2023-06-01T08:51:06;9.13;;;6.00;;
7665;SDS011;3875;46.562;4.898;2023-06-01T08:53:32;7.57;;;5.90;;
7665;SDS011;3875;46.562;4.898;2023-06-01T08:55:59;5.60;;;5.10;;
7665;SDS011;3875;46.562;4.898;2023-06-01T08:58:25;6.27;;;5.67;;
7665;SDS011;3875;46.562;4.898;2023-06-01T09:00:51;6.87;;;6.17;;
7665;SDS011;3875;46.562;4.898;2023-06-01T09:03:19;9.97;;;6.70;;
7665;SDS011;3875;46.562;4.898;2023-06-01T09:05:45;7.37;;;6.47;;
7665;SDS011;3875;46.562;4.898;2023-06-01T09:08:11;7.00;;;6.03;;
7665;SDS011;3875;46.562;4.898;2023-06-01T09:10:37;7.47;;;5.87;;
7665;SDS011;3875;46.562;4.898;2023-06-01T09:13:03;6.27;;;5.67;;
7665;SDS011;3875;46.562;4.898;2023-06-01T09:15:28;7.03;;;5.70;;
7665;SDS011;3875;46.562;4.898;2023-06-01T09:18:05;6.60;;;5.80;;
7665;SDS011;3875;46.562;4.898;2023-06-01T09:20:37;8.67;;;6.00;;
7665;SDS011;3875;46.562;4.898;2023-06-01T09:23:04;5.97;;;5.20;;
7665;SDS011;3875;46.562;4.898;2023-06-01T09:25:31;5.47;;;4.63;;
7665;SDS011;3875;46.562;4.898;2023-06-01T09:27:58;7.15;;;5.70;;
7665;SDS011;3875;46.562;4.898;2023-06-01T09:30:36;7.00;;;5.83;;
7665;SDS011;3875;46.562;4.898;2023-06-01T09:33:21;6.07;;;5.03;;
7665;SDS011;3875;46.562;4.898;2023-06-01T09:35:48;6.27;;;5.07;;
7665;SDS011;3875;46.562;4.898;2023-06-01T09:38:21;6.57;;;5.23;;
7665;SDS011;3875;46.562;4.898;2023-06-01T09:43:26;6.00;;;5.40;;
7665;SDS011;3875;46.562;4.898;2023-06-01T09:46:05;7.90;;;5.40;;
7665;SDS011;3875;46.562;4.898;2023-06-01T09:48:32;6.20;;;5.33;;
7665;SDS011;3875;46.562;4.898;2023-06-01T09:50:58;5.63;;;5.03;;
7665;SDS011;3875;46.562;4.898;2023-06-01T09:53:24;6.80;;;5.43;;
7665;SDS011;3875;46.562;4.898;2023-06-01T09:56:00;7.53;;;5.23;;
7665;SDS011;3875;46.562;4.898;2023-06-01T09:58:27;6.93;;;5.60;;
7665;SDS011;3875;46.562;4.898;2023-06-01T10:00:53;9.07;;;5.70;;
7665;SDS011;3875;46.562;4.898;2023-06-01T10:03:20;7.47;;;5.40;;
7665;SDS011;3875;46.562;4.898;2023-06-01T10:05:48;7.80;;;5.33;;
7665;SDS011;3875;46.562;4.898;2023-06-01T10:08:15;5.47;;;4.97;;
7665;SDS011;3875;46.562;4.898;2023-06-01T10:10:43;8.27;;;5.23;;
7665;SDS011;3875;46.562;4.898;2023-06-01T10:13:13;6.55;;;5.32;;
7665;SDS011;3875;46.562;4.898;2023-06-01T10:15:39;5.57;;;4.80;;
7665;SDS011;3875;46.562;4.898;2023-06-01T10:18:05;6.32;;;5.50;;
7665;SDS011;3875;46.562;4.898;2023-06-01T10:20:35;9.50;;;5.10;;
7665;SDS011;3875;46.562;4.898;2023-06-01T10:23:02;4.83;;;4.43;;
7665;SDS011;3875;46.562;4.898;2023-06-01T10:25:38;7.10;;;4.97;;
7665;SDS011;3875;46.562;4.898;2023-06-01T10:28:09;5.53;;;4.93;;
7665;SDS011;3875;46.562;4.898;2023-06-01T10:30:36;5.03;;;4.53;;
7665;SDS011;3875;46.562;4.898;2023-06-01T10:33:02;5.70;;;4.90;;
7665;SDS011;3875;46.562;4.898;2023-06-01T10:40:38;5.80;;;4.82;;
7665;SDS011;3875;46.562;4.898;2023-06-01T10:43:06;5.65;;;4.82;;
7665;SDS011;3875;46.562;4.898;2023-06-01T10:47:59;8.52;;;4.45;;
7665;SDS011;3875;46.562;4.898;2023-06-01T10:50:26;9.20;;;4.80;;
7665;SDS011;3875;46.562;4.898;2023-06-01T10:52:53;4.50;;;3.83;;
7665;SDS011;3875;46.562;4.898;2023-06-01T10:55:20;5.97;;;4.40;;
7665;SDS011;3875;46.562;4.898;2023-06-01T10:57:47;5.65;;;4.20;;
7665;SDS011;3875;46.562;4.898;2023-06-01T11:03:08;5.38;;;4.88;;
7665;SDS011;3875;46.562;4.898;2023-06-01T11:05:37;5.82;;;4.80;;
7665;SDS011;3875;46.562;4.898;2023-06-01T11:13:23;5.00;;;4.50;;
7665;SDS011;3875;46.562;4.898;2023-06-01T11:18:45;6.00;;;5.15;;
7665;SDS011;3875;46.562;4.898;2023-06-01T11:21:21;5.20;;;4.70;;
7665;SDS011;3875;46.562;4.898;2023-06-01T11:23:48;6.75;;;5.18;;
7665;SDS011;3875;46.562;4.898;2023-06-01T11:26:15;4.97;;;4.47;;
7665;SDS011;3875;46.562;4.898;2023-06-01T11:28:43;5.60;;;4.95;;
7665;SDS011;3875;46.562;4.898;2023-06-01T11:31:10;5.07;;;4.60;;
7665;SDS011;3875;46.562;4.898;2023-06-01T11:33:38;10.77;;;5.00;;
7665;SDS011;3875;46.562;4.898;2023-06-01T11:36:05;5.70;;;5.13;;
7665;SDS011;3875;46.562;4.898;2023-06-01T11:38:39;5.32;;;4.80;;
7665;SDS011;3875;46.562;4.898;2023-06-01T11:41:09;5.88;;;4.68;;
7665;SDS011;3875;46.562;4.898;2023-06-01T11:43:35;7.82;;;4.95;;
7665;SDS011;3875;46.562;4.898;2023-06-01T11:46:04;10.02;;;4.68;;
7665;SDS011;3875;46.562;4.898;2023-06-01T11:48:37;7.55;;;4.90;;
7665;SDS011;3875;46.562;4.898;2023-06-01T11:51:03;5.40;;;4.90;;
7665;SDS011;3875;46.562;4.898;2023-06-01T11:53:31;5.45;;;4.95;;
7665;SDS011;3875;46.562;4.898;2023-06-01T11:55:57;5.55;;;4.60;;
7665;SDS011;3875;46.562;4.898;2023-06-01T11:58:26;8.52;;;4.90;;
7665;SDS011;3875;46.562;4.898;2023-06-01T12:00:54;7.90;;;4.82;;
7665;SDS011;3875;46.562;4.898;2023-06-01T12:03:20;6.55;;;4.97;;
7665;SDS011;3875;46.562;4.898;2023-06-01T12:05:49;8.80;;;5.35;;
7665;SDS011;3875;46.562;4.898;2023-06-01T12:08:16;5.60;;;4.35;;
7665;SDS011;3875;46.562;4.898;2023-06-01T12:10:47;6.85;;;4.75;;
7665;SDS011;3875;46.562;4.898;2023-06-01T12:13:15;8.73;;;5.20;;
7665;SDS011;3875;46.562;4.898;2023-06-01T12:15:42;5.72;;;5.13;;
7665;SDS011;3875;46.562;4.898;2023-06-01T12:18:08;7.07;;;4.50;;
7665;SDS011;3875;46.562;4.898;2023-06-01T12:20:38;6.38;;;4.88;;
7665;SDS011;3875;46.562;4.898;2023-06-01T12:25:35;5.72;;;4.63;;
7665;SDS011;3875;46.562;4.898;2023-06-01T12:28:01;7.43;;;4.60;;
7665;SDS011;3875;46.562;4.898;2023-06-01T12:30:30;10.23;;;4.97;;
7665;SDS011;3875;46.562;4.898;2023-06-01T12:32:57;7.55;;;4.78;;
7665;SDS011;3875;46.562;4.898;2023-06-01T12:35:23;5.13;;;4.30;;
7665;SDS011;3875;46.562;4.898;2023-06-01T12:38:02;4.75;;;4.20;;
7665;SDS011;3875;46.562;4.898;2023-06-01T12:40:32;5.22;;;4.20;;
7665;SDS011;3875;46.562;4.898;2023-06-01T12:43:01;4.75;;;4.30;;
7665;SDS011;3875;46.562;4.898;2023-06-01T12:45:35;5.82;;;4.43;;
7665;SDS011;3875;46.562;4.898;2023-06-01T12:48:02;5.78;;;3.88;;
7665;SDS011;3875;46.562;4.898;2023-06-01T12:50:28;5.22;;;4.50;;
7665;SDS011;3875;46.562;4.898;2023-06-01T12:52:54;6.63;;;4.57;;
7665;SDS011;3875;46.562;4.898;2023-06-01T12:55:20;4.72;;;4.18;;
7665;SDS011;3875;46.562;4.898;2023-06-01T12:57:55;9.50;;;3.92;;
7665;SDS011;3875;46.562;4.898;2023-06-01T13:00:21;5.50;;;3.95;;
7665;SDS011;3875;46.562;4.898;2023-06-01T13:02:47;6.53;;;4.07;;
7665;SDS011;3875;46.562;4.898;2023-06-01T13:05:14;6.25;;;4.43;;
7665;SDS011;3875;46.562;4.898;2023-06-01T13:07:43;6.07;;;4.40;;
7665;SDS011;3875;46.562;4.898;2023-06-01T13:10:10;4.05;;;3.65;;
7665;SDS011;3875;46.562;4.898;2023-06-01T13:12:37;5.68;;;4.13;;
7665;SDS011;3875;46.562;4.898;2023-06-01T13:15:02;4.00;;;3.60;;
7665;SDS011;3875;46.562;4.898;2023-06-01T13:17:28;6.18;;;4.63;;
7665;SDS011;3875;46.562;4.898;2023-06-01T13:19:54;6.53;;;4.03;;
7665;SDS011;3875;46.562;4.898;2023-06-01T13:22:20;5.85;;;3.90;;
7665;SDS011;3875;46.562;4.898;2023-06-01T13:24:46;6.65;;;4.68;;
7665;SDS011;3875;46.562;4.898;2023-06-01T13:27:13;5.30;;;4.03;;
7665;SDS011;3875;46.562;4.898;2023-06-01T13:29:39;7.85;;;4.10;;
7665;SDS011;3875;46.562;4.898;2023-06-01T13:32:04;3.72;;;3.30;;
7665;SDS011;3875;46.562;4.898;2023-06-01T13:34:30;5.78;;;4.03;;
7665;SDS011;3875;46.562;4.898;2023-06-01T13:36:56;6.10;;;4.28;;
7665;SDS011;3875;46.562;4.898;2023-06-01T13:39:23;6.93;;;4.40;;
7665;SDS011;3875;46.562;4.898;2023-06-01T13:41:49;5.70;;;3.70;;
7665;SDS011;3875;46.562;4.898;2023-06-01T13:44:14;5.88;;;3.80;;
7665;SDS011;3875;46.562;4.898;2023-06-01T13:46:42;5.32;;;4.13;;
7665;SDS011;3875;46.562;4.898;2023-06-01T13:49:08;5.68;;;3.83;;
7665;SDS011;3875;46.562;4.898;2023-06-01T13:51:35;4.30;;;3.83;;
7665;SDS011;3875;46.562;4.898;2023-06-01T13:54:03;4.13;;;3.70;;
7665;SDS011;3875;46.562;4.898;2023-06-01T13:56:29;3.90;;;3.50;;
7665;SDS011;3875;46.562;4.898;2023-06-01T13:58:55;4.82;;;3.50;;
7665;SDS011;3875;46.562;4.898;2023-06-01T14:01:21;6.03;;;3.65;;
7665;SDS011;3875;46.562;4.898;2023-06-01T14:03:46;4.90;;;3.80;;
7665;SDS011;3875;46.562;4.898;2023-06-01T14:06:12;4.15;;;3.35;;
7665;SDS011;3875;46.562;4.898;2023-06-01T14:08:38;9.32;;;4.07;;
7665;SDS011;3875;46.562;4.898;2023-06-01T14:11:04;7.30;;;3.85;;
7665;SDS011;3875;46.562;4.898;2023-06-01T14:13:30;6.80;;;3.75;;
7665;SDS011;3875;46.562;4.898;2023-06-01T14:15:56;5.68;;;3.83;;
7665;SDS011;3875;46.562;4.898;2023-06-01T14:18:21;7.68;;;3.80;;
7665;SDS011;3875;46.562;4.898;2023-06-01T14:20:47;6.10;;;3.88;;
7665;SDS011;3875;46.562;4.898;2023-06-01T14:23:13;5.60;;;3.70;;
7665;SDS011;3875;46.562;4.898;2023-06-01T14:25:40;10.68;;;3.72;;
7665;SDS011;3875;46.562;4.898;2023-06-01T14:28:06;3.50;;;3.20;;
7665;SDS011;3875;46.562;4.898;2023-06-01T14:30:32;4.00;;;3.60;;
7665;SDS011;3875;46.562;4.898;2023-06-01T14:32:57;4.40;;;3.65;;
7665;SDS011;3875;46.562;4.898;2023-06-01T14:35:23;6.57;;;3.85;;
7665;SDS011;3875;46.562;4.898;2023-06-01T14:37:51;4.05;;;3.65;;
7665;SDS011;3875;46.562;4.898;2023-06-01T14:40:17;6.50;;;3.50;;
7665;SDS011;3875;46.562;4.898;2023-06-01T14:42:43;8.27;;;3.90;;
7665;SDS011;3875;46.562;4.898;2023-06-01T14:45:09;5.07;;;3.50;;
7665;SDS011;3875;46.562;4.898;2023-06-01T14:47:36;5.65;;;3.53;;
7665;SDS011;3875;46.562;4.898;2023-06-01T14:50:02;4.53;;;3.10;;
7665;SDS011;3875;46.562;4.898;2023-06-01T14:52:28;7.47;;;3.90;;
7665;SDS011;3875;46.562;4.898;2023-06-01T14:54:55;7.88;;;3.58;;
7665;SDS011;3875;46.562;4.898;2023-06-01T14:57:20;5.38;;;3.60;;
7665;SDS011;3875;46.562;4.898;2023-06-01T14:59:46;6.75;;;3.50;;
7665;SDS011;3875;46.562;4.898;2023-06-01T15:02:12;5.60;;;3.42;;
7665;SDS011;3875;46.562;4.898;2023-06-01T15:04:37;5.65;;;3.45;;
7665;SDS011;3875;46.562;4.898;2023-06-01T15:07:03;5.40;;;3.55;;
7665;SDS011;3875;46.562;4.898;2023-06-01T15:09:29;4.78;;;3.20;;
7665;SDS011;3875;46.562;4.898;2023-06-01T15:11:55;4.40;;;3.60;;
7665;SDS011;3875;46.562;4.898;2023-06-01T15:14:21;6.90;;;3.45;;
7665;SDS011;3875;46.562;4.898;2023-06-01T15:16:47;4.07;;;3.40;;
7665;SDS011;3875;46.562;4.898;2023-06-01T15:19:12;6.10;;;3.60;;
7665;SDS011;3875;46.562;4.898;2023-06-01T15:21:38;9.20;;;3.92;;
7665;SDS011;3875;46.562;4.898;2023-06-01T15:24:04;4.80;;;3.17;;
7665;SDS011;3875;46.562;4.898;2023-06-01T15:26:30;7.70;;;3.60;;
7665;SDS011;3875;46.562;4.898;2023-06-01T15:28:56;5.47;;;3.25;;
7665;SDS011;3875;46.562;4.898;2023-06-01T15:31:22;4.07;;;3.50;;
7665;SDS011;3875;46.562;4.898;2023-06-01T15:33:47;5.53;;;3.58;;
7665;SDS011;3875;46.562;4.898;2023-06-01T15:36:13;4.00;;;3.45;;
7665;SDS011;3875;46.562;4.898;2023-06-01T15:38:42;5.03;;;3.30;;
7665;SDS011;3875;46.562;4.898;2023-06-01T15:41:08;7.53;;;3.63;;
7665;SDS011;3875;46.562;4.898;2023-06-01T15:43:34;4.47;;;3.45;;
7665;SDS011;3875;46.562;4.898;2023-06-01T15:46:01;3.95;;;3.08;;
7665;SDS011;3875;46.562;4.898;2023-06-01T15:48:30;9.00;;;4.07;;
7665;SDS011;3875;46.562;4.898;2023-06-01T15:50:56;4.63;;;3.83;;
7665;SDS011;3875;46.562;4.898;2023-06-01T15:53:22;4.03;;;3.58;;
7665;SDS011;3875;46.562;4.898;2023-06-01T15:55:48;5.75;;;3.53;;